Time;durP1;ratioP1;P1;durP2;ratioP2;P2;SDS_P1;SDS_P2;PMS_P1;PMS_P2;Temp;Humidity;BMP_temperature;BMP_pressure;BME280_temperature;BME280_humidity;BME280_pressure;Samples;Min_cycle;Max_cycle;Signal;HPM_P1;HPM_P2
2022/03/25 00:00:00;;;;;;;31.13;19.53;;;7.60;85.90;;;;;;4996119;28;20981;-79
2022/03/25 00:02:27;;;;;;;31.23;20.10;;;7.50;86.50;;;;;;4998989;28;20424;-78
2022/03/25 00:04:54;;;;;;;27.30;18.60;;;7.40;88.20;;;;;;5000469;28;20489;-77
2022/03/25 00:07:20;;;;;;;26.47;18.97;;;7.40;89.70;;;;;;5003723;28;20454;-78
2022/03/25 00:09:47;;;;;;;32.63;18.07;;;7.50;90.60;;;;;;5005255;28;20508;-78
2022/03/25 00:12:15;;;;;;;29.80;19.43;;;7.50;90.90;;;;;;5005816;28;20419;-78
2022/03/25 00:14:42;;;;;;;35.23;17.80;;;7.40;90.70;;;;;;5003755;28;20417;-78
2022/03/25 00:17:08;;;;;;;34.97;20.43;;;7.40;91.20;;;;;;5003803;28;20474;-78
2022/03/25 00:19:35;;;;;;;34.30;20.20;;;7.30;91.80;;;;;;5006404;28;20479;-78
2022/03/25 00:22:01;;;;;;;36.07;21.00;;;7.30;92.50;;;;;;5004779;28;20257;-78
2022/03/25 00:24:28;;;;;;;38.93;22.03;;;7.20;93.30;;;;;;5003617;28;20933;-78
2022/03/25 00:26:54;;;;;;;31.73;19.63;;;7.20;93.70;;;;;;5004068;28;20471;-79
2022/03/25 00:29:22;;;;;;;33.67;19.87;;;7.10;94.70;;;;;;5006113;28;20425;-78
2022/03/25 00:31:49;;;;;;;34.10;20.30;;;7.10;95.50;;;;;;5004567;28;20457;-78
2022/03/25 00:34:15;;;;;;;36.10;21.17;;;7.10;96.20;;;;;;5007630;28;20449;-78
2022/03/25 00:36:42;;;;;;;31.80;19.40;;;7.10;96.20;;;;;;5034163;23;20507;-80
2022/03/25 00:39:09;;;;;;;39.37;22.50;;;7.10;98.40;;;;;;5012124;28;20487;-81
2022/03/25 00:41:36;;;;;;;36.40;22.30;;;7.00;98.20;;;;;;5012267;28;20445;-80
2022/03/25 00:44:04;;;;;;;44.30;25.00;;;7.00;98.50;;;;;;5011905;28;20474;-83
2022/03/25 00:46:32;;;;;;;40.50;26.37;;;7.00;97.80;;;;;;5019091;28;20455;-81
2022/03/25 00:48:59;;;;;;;41.97;23.53;;;7.00;97.90;;;;;;5021207;28;20416;-81
2022/03/25 00:51:28;;;;;;;36.13;22.93;;;7.00;98.90;;;;;;5018565;28;20445;-82
2022/03/25 00:53:55;;;;;;;40.28;24.10;;;7.00;99.80;;;;;;5011727;28;20863;-82
2022/03/25 00:56:22;;;;;;;29.63;20.37;;;7.40;99.40;;;;;;5008814;28;20225;-80
2022/03/25 00:58:49;;;;;;;42.90;22.40;;;6.90;99.90;;;;;;5010903;28;20427;-81
2022/03/25 01:01:15;;;;;;;32.63;20.33;;;6.40;99.90;;;;;;5009225;28;20787;-81
2022/03/25 01:03:44;;;;;;;34.67;24.17;;;6.70;99.90;;;;;;5009357;28;20446;-81
2022/03/25 01:06:10;;;;;;;32.70;20.53;;;6.60;99.90;;;;;;5009733;28;20512;-79
2022/03/25 01:08:37;;;;;;;27.98;18.65;;;6.50;99.90;;;;;;5007113;28;20449;-80
2022/03/25 01:11:05;;;;;;;34.00;20.40;;;6.60;99.90;;;;;;5006936;28;20210;-83
2022/03/25 01:13:33;;;;;;;39.50;22.23;;;6.60;99.90;;;;;;5007435;28;20204;-84
2022/03/25 01:16:00;;;;;;;32.33;21.50;;;6.50;99.90;;;;;;5008957;28;20488;-81
2022/03/25 01:18:27;;;;;;;32.70;20.10;;;6.50;99.90;;;;;;5008577;28;20570;-81
2022/03/25 01:20:55;;;;;;;37.63;21.48;;;6.60;99.90;;;;;;5009695;28;20210;-81
2022/03/25 01:23:22;;;;;;;33.80;22.02;;;6.50;99.90;;;;;;5009543;28;20211;-80
2022/03/25 01:25:48;;;;;;;34.60;20.52;;;6.80;99.90;;;;;;5010094;28;20217;-80
2022/03/25 01:28:15;;;;;;;38.33;21.47;;;6.60;99.90;;;;;;5009343;28;20229;-81
2022/03/25 01:30:42;;;;;;;36.78;20.85;;;6.50;99.90;;;;;;5008963;28;20511;-82
2022/03/25 01:33:09;;;;;;;30.67;19.70;;;6.50;99.90;;;;;;5009419;28;20202;-80
2022/03/25 01:35:36;;;;;;;35.97;20.20;;;6.40;99.90;;;;;;5007294;28;20572;-80
2022/03/25 01:38:04;;;;;;;33.33;22.57;;;6.10;99.90;;;;;;5009701;28;20209;-80
2022/03/25 01:40:31;;;;;;;35.67;20.65;;;6.30;99.90;;;;;;5008396;28;20449;-80
2022/03/25 01:42:57;;;;;;;34.92;19.60;;;6.40;99.90;;;;;;5004395;28;20242;-81
2022/03/25 01:45:31;;;;;;;35.72;22.85;;;6.30;99.90;;;;;;5005036;28;20263;-80
2022/03/25 01:47:58;;;;;;;37.45;21.85;;;6.30;99.90;;;;;;5011126;28;20196;-82
2022/03/25 01:50:25;;;;;;;40.50;23.65;;;6.00;99.90;;;;;;5012355;28;20208;-81
2022/03/25 01:52:53;;;;;;;39.20;21.87;;;6.30;99.90;;;;;;5017898;28;20221;-83
2022/03/25 01:55:26;;;;;;;39.58;23.80;;;6.30;99.90;;;;;;5019185;28;20408;-81
2022/03/25 01:57:56;;;;;;;38.58;23.15;;;6.40;99.90;;;;;;5013660;28;20289;-80
2022/03/25 02:00:24;;;;;;;38.13;21.87;;;6.40;99.90;;;;;;5013898;28;20189;-80
2022/03/25 02:02:51;;;;;;;40.08;21.90;;;6.40;99.90;;;;;;5011994;28;20478;-81
2022/03/25 02:05:18;;;;;;;36.30;23.20;;;6.50;99.90;;;;;;5008062;28;20205;-83
2022/03/25 02:07:45;;;;;;;34.97;20.85;;;6.60;99.90;;;;;;5006752;28;20252;-83
2022/03/25 02:10:12;;;;;;;35.83;22.38;;;6.40;99.90;;;;;;5004958;28;20283;-81
2022/03/25 02:12:40;;;;;;;38.33;22.35;;;6.30;99.90;;;;;;5002416;28;20587;-81
2022/03/25 02:15:08;;;;;;;31.00;21.73;;;6.20;99.90;;;;;;5002325;28;20206;-83
2022/03/25 02:17:35;;;;;;;38.83;21.90;;;6.10;99.90;;;;;;5002318;28;20221;-82
2022/03/25 02:20:07;;;;;;;34.50;22.25;;;6.10;99.90;;;;;;5007523;28;20196;-82
2022/03/25 02:22:35;;;;;;;37.90;23.45;;;6.20;99.90;;;;;;5019083;28;20185;-81
2022/03/25 02:25:08;;;;;;;39.92;23.55;;;6.20;99.90;;;;;;5016454;28;20289;-79
2022/03/25 02:27:36;;;;;;;38.78;20.90;;;6.10;99.90;;;;;;5014265;28;20302;-81
2022/03/25 02:30:03;;;;;;;35.03;23.13;;;6.00;99.90;;;;;;5011632;28;20202;-81
2022/03/25 02:32:30;;;;;;;38.70;22.48;;;6.00;99.90;;;;;;5008790;28;20212;-83
2022/03/25 02:34:56;;;;;;;36.20;22.65;;;5.90;99.90;;;;;;5006425;28;20237;-82
2022/03/25 02:37:25;;;;;;;36.97;22.45;;;5.90;99.90;;;;;;5001997;28;20229;-83
2022/03/25 02:39:53;;;;;;;34.20;22.13;;;5.90;99.90;;;;;;5001676;28;20235;-83
2022/03/25 02:42:20;;;;;;;35.67;22.67;;;5.90;99.90;;;;;;5001569;28;20205;-83
2022/03/25 02:44:46;;;;;;;40.55;25.00;;;5.90;99.90;;;;;;5000118;28;20201;-83
2022/03/25 02:47:13;;;;;;;38.30;21.90;;;5.90;99.90;;;;;;5000258;28;20256;-82
2022/03/25 02:49:39;;;;;;;37.67;23.20;;;5.90;99.90;;;;;;5002773;28;20213;-82
2022/03/25 02:52:06;;;;;;;39.55;22.83;;;5.90;99.90;;;;;;5007515;28;20236;-82
2022/03/25 02:54:33;;;;;;;38.25;21.67;;;5.80;99.90;;;;;;5004960;28;20578;-82
2022/03/25 02:57:01;;;;;;;38.53;23.95;;;5.70;99.90;;;;;;5003306;28;20225;-82
2022/03/25 02:59:28;;;;;;;35.67;21.38;;;5.90;99.90;;;;;;5003340;28;20229;-82
2022/03/25 03:01:54;;;;;;;37.13;22.90;;;6.00;99.90;;;;;;5006592;28;20494;-82
2022/03/25 03:04:21;;;;;;;39.22;21.58;;;6.00;99.90;;;;;;5001375;28;20268;-82
2022/03/25 03:06:48;;;;;;;36.53;21.73;;;6.00;99.90;;;;;;5000957;28;20252;-82
2022/03/25 03:09:17;;;;;;;30.63;21.67;;;6.00;99.90;;;;;;5000874;28;20251;-83
2022/03/25 03:11:44;;;;;;;37.97;20.75;;;6.40;99.90;;;;;;5003222;28;20206;-81
2022/03/25 03:14:12;;;;;;;31.77;21.02;;;6.30;99.90;;;;;;5006980;28;20228;-82
2022/03/25 03:16:39;;;;;;;30.83;20.70;;;6.10;99.90;;;;;;5007470;28;20311;-82
2022/03/25 03:19:06;;;;;;;36.70;20.65;;;6.10;99.90;;;;;;5001164;28;20683;-82
2022/03/25 03:21:32;;;;;;;35.20;20.27;;;6.10;99.90;;;;;;5002163;28;20208;-83
2022/03/25 03:23:59;;;;;;;37.20;21.70;;;6.00;99.90;;;;;;5000006;28;20634;-82
2022/03/25 03:26:26;;;;;;;37.47;20.27;;;6.00;99.90;;;;;;5001833;28;20217;-81
2022/03/25 03:28:53;;;;;;;36.25;20.98;;;6.00;99.90;;;;;;5008348;28;20228;-81
2022/03/25 03:31:21;;;;;;;38.58;20.38;;;5.90;99.90;;;;;;5008231;28;20205;-82
2022/03/25 03:33:48;;;;;;;35.75;21.35;;;6.00;99.90;;;;;;5007012;28;20209;-81
2022/03/25 03:36:14;;;;;;;32.20;19.27;;;5.90;99.90;;;;;;5001334;28;20608;-82
2022/03/25 03:38:41;;;;;;;30.45;19.65;;;5.80;99.90;;;;;;5011237;28;20209;-81
2022/03/25 03:41:08;;;;;;;32.22;19.20;;;5.90;99.90;;;;;;5013300;28;20212;-81
2022/03/25 03:43:34;;;;;;;31.98;19.55;;;5.80;99.90;;;;;;5012860;28;20336;-80
2022/03/25 03:46:01;;;;;;;33.38;21.27;;;5.80;99.90;;;;;;5008709;28;20440;-81
2022/03/25 03:48:29;;;;;;;36.80;22.80;;;6.00;99.90;;;;;;5007146;28;20234;-82
2022/03/25 03:50:55;;;;;;;37.45;20.73;;;5.70;99.90;;;;;;5005560;28;20213;-83
2022/03/25 03:53:22;;;;;;;33.47;21.13;;;5.60;99.90;;;;;;5008455;28;20232;-82
2022/03/25 03:55:48;;;;;;;39.25;21.95;;;5.60;99.90;;;;;;5006829;28;20209;-79
2022/03/25 03:58:15;;;;;;;31.85;19.33;;;5.30;99.90;;;;;;5007678;28;20451;-82
2022/03/25 04:00:42;;;;;;;33.95;20.52;;;5.30;99.90;;;;;;5004100;28;20703;-83
2022/03/25 04:03:08;;;;;;;35.70;22.75;;;5.40;99.90;;;;;;5002803;28;20255;-82
2022/03/25 04:05:36;;;;;;;34.90;22.15;;;5.60;99.90;;;;;;5002966;28;20235;-82
2022/03/25 04:08:03;;;;;;;32.92;20.17;;;5.60;99.90;;;;;;5001977;28;20221;-82
2022/03/25 04:10:30;;;;;;;31.92;18.73;;;5.70;99.90;;;;;;5002005;28;20619;-82
2022/03/25 04:12:57;;;;;;;32.10;18.60;;;5.60;99.90;;;;;;5003233;28;20210;-82
2022/03/25 04:15:23;;;;;;;33.10;20.10;;;5.60;99.90;;;;;;5003380;28;20122;-82
2022/03/25 04:17:50;;;;;;;30.88;21.38;;;5.60;99.90;;;;;;5004095;28;20695;-82
2022/03/25 04:20:18;;;;;;;31.40;20.45;;;5.60;99.90;;;;;;5008839;28;20229;-80
2022/03/25 04:22:47;;;;;;;34.67;21.08;;;5.50;99.90;;;;;;5011661;28;20264;-79
2022/03/25 04:25:14;;;;;;;38.33;22.00;;;5.60;99.90;;;;;;5008630;28;20213;-80
2022/03/25 04:27:48;;;;;;;31.05;19.55;;;5.60;99.90;;;;;;5004345;28;20229;-82
2022/03/25 04:30:18;;;;;;;36.85;22.25;;;5.70;99.90;;;;;;5003983;28;20200;-82
2022/03/25 04:32:45;;;;;;;42.08;21.15;;;5.80;99.90;;;;;;5006539;28;20227;-82
2022/03/25 04:35:11;;;;;;;36.80;17.38;;;5.80;99.90;;;;;;5005380;28;20205;-82
2022/03/25 04:37:38;;;;;;;29.40;19.80;;;5.90;99.90;;;;;;5007163;28;20264;-82
2022/03/25 04:40:07;;;;;;;34.50;19.30;;;5.90;99.90;;;;;;5006956;28;20259;-81
2022/03/25 04:42:34;;;;;;;40.45;21.80;;;5.90;99.90;;;;;;5013457;28;20212;-81
2022/03/25 04:45:01;;;;;;;27.27;18.50;;;5.70;99.90;;;;;;5004916;28;20239;-81
2022/03/25 04:47:27;;;;;;;40.08;22.95;;;5.50;99.90;;;;;;5003196;28;20225;-83
2022/03/25 04:49:54;;;;;;;54.08;40.22;;;5.40;99.90;;;;;;5002318;28;20205;-83
2022/03/25 04:52:20;;;;;;;47.67;34.25;;;5.40;99.90;;;;;;5008015;28;20259;-80
2022/03/25 04:54:47;;;;;;;43.47;28.92;;;5.30;99.90;;;;;;5003004;28;20228;-81
2022/03/25 04:57:14;;;;;;;41.78;25.20;;;5.30;99.90;;;;;;5003078;28;20245;-81
2022/03/25 04:59:41;;;;;;;35.97;25.42;;;5.30;99.90;;;;;;5005921;28;20232;-80
2022/03/25 05:02:09;;;;;;;33.33;23.70;;;5.40;99.90;;;;;;5010765;28;20584;-81
2022/03/25 05:04:36;;;;;;;40.45;22.20;;;5.40;99.90;;;;;;5009609;28;20219;-81
2022/03/25 05:07:03;;;;;;;37.72;22.90;;;5.40;99.90;;;;;;5011748;28;20232;-81
2022/03/25 05:09:29;;;;;;;39.00;25.55;;;5.50;99.90;;;;;;5011502;28;20204;-80
2022/03/25 05:11:56;;;;;;;36.95;25.67;;;5.50;99.90;;;;;;5011651;28;20209;-81
2022/03/25 05:14:24;;;;;;;42.15;26.17;;;5.50;99.90;;;;;;5012376;28;20201;-81
2022/03/25 05:16:52;;;;;;;35.88;23.80;;;5.40;99.90;;;;;;5012675;28;20228;-82
2022/03/25 05:19:19;;;;;;;30.20;21.38;;;5.40;99.90;;;;;;5012657;28;20263;-81
2022/03/25 05:21:45;;;;;;;39.67;24.48;;;5.40;99.90;;;;;;5013882;28;20444;-79
2022/03/25 05:24:12;;;;;;;35.63;23.55;;;5.40;99.90;;;;;;5011826;28;20209;-80
2022/03/25 05:26:39;;;;;;;40.78;22.27;;;5.30;99.90;;;;;;5008451;28;20229;-79
2022/03/25 05:29:06;;;;;;;30.55;21.80;;;5.40;99.90;;;;;;5010588;28;20213;-79
2022/03/25 05:31:36;;;;;;;34.15;21.25;;;5.30;99.90;;;;;;5006585;28;20213;-79
2022/03/25 05:34:04;;;;;;;40.03;22.88;;;5.50;99.90;;;;;;5007732;28;20228;-81
2022/03/25 05:36:30;;;;;;;31.65;20.00;;;5.70;99.90;;;;;;5006656;28;20264;-83
2022/03/25 05:38:57;;;;;;;34.53;21.30;;;5.60;99.90;;;;;;5003260;28;20653;-83
2022/03/25 05:41:24;;;;;;;38.17;20.92;;;5.60;99.90;;;;;;5002132;28;20209;-81
2022/03/25 05:43:51;;;;;;;45.13;22.40;;;5.80;99.90;;;;;;5002341;28;20205;-83
2022/03/25 05:46:18;;;;;;;31.15;20.85;;;5.80;99.90;;;;;;5006895;28;20224;-80
2022/03/25 05:48:47;;;;;;;31.10;20.27;;;5.90;99.90;;;;;;5011184;28;20225;-80
2022/03/25 05:51:17;;;;;;;35.00;21.48;;;5.90;99.90;;;;;;5010361;28;20201;-82
2022/03/25 05:53:44;;;;;;;41.65;22.83;;;6.10;99.90;;;;;;5006871;28;20185;-81
2022/03/25 05:56:12;;;;;;;33.20;21.20;;;5.80;99.90;;;;;;5004696;28;20323;-83
2022/03/25 05:58:39;;;;;;;31.52;22.23;;;5.90;99.90;;;;;;5002272;28;20201;-82
2022/03/25 06:01:07;;;;;;;33.92;21.10;;;6.00;99.90;;;;;;5001738;28;20209;-81
2022/03/25 06:03:34;;;;;;;34.65;22.75;;;6.20;99.90;;;;;;5001681;28;20586;-82
2022/03/25 06:06:04;;;;;;;29.70;20.40;;;6.20;99.90;;;;;;5001767;28;20224;-83
2022/03/25 06:08:31;;;;;;;33.85;20.45;;;6.40;99.90;;;;;;4999122;28;20225;-83
2022/03/25 06:10:58;;;;;;;29.73;20.45;;;6.40;99.90;;;;;;4999659;28;20232;-82
2022/03/25 06:13:25;;;;;;;34.00;21.25;;;6.60;99.90;;;;;;5002526;28;20623;-83
2022/03/25 06:15:51;;;;;;;35.25;20.05;;;6.70;99.90;;;;;;5002185;28;20252;-82
2022/03/25 06:18:18;;;;;;;35.13;20.52;;;6.70;99.90;;;;;;5003138;28;20271;-83
2022/03/25 06:20:45;;;;;;;39.63;22.67;;;6.80;99.90;;;;;;5003404;28;20212;-83
2022/03/25 06:23:14;;;;;;;41.20;22.40;;;7.10;99.90;;;;;;5003341;28;20212;-83
2022/03/25 06:25:41;;;;;;;32.28;22.15;;;6.90;99.90;;;;;;5003818;28;20212;-82
2022/03/25 06:28:08;;;;;;;38.53;22.45;;;7.20;99.90;;;;;;5003981;28;20221;-82
2022/03/25 06:30:37;;;;;;;37.40;22.75;;;7.20;99.90;;;;;;5005315;28;20209;-82
2022/03/25 06:33:05;;;;;;;31.00;20.70;;;7.20;99.90;;;;;;5015681;28;20268;-81
2022/03/25 06:35:32;;;;;;;34.67;19.83;;;7.50;99.90;;;;;;5003489;28;20485;-82
2022/03/25 06:37:59;;;;;;;38.43;20.80;;;7.40;99.90;;;;;;5013947;23;20720;-81
2022/03/25 06:40:27;;;;;;;39.43;21.30;;;7.50;99.90;;;;;;5000966;28;20445;-80
2022/03/25 06:42:54;;;;;;;36.00;22.07;;;7.60;99.90;;;;;;5000716;28;20469;-79
2022/03/25 06:45:22;;;;;;;34.90;20.70;;;7.60;99.90;;;;;;5001141;28;20483;-80
2022/03/25 06:47:49;;;;;;;29.63;19.00;;;7.70;99.90;;;;;;5000341;28;20539;-78
2022/03/25 06:50:17;;;;;;;31.33;17.97;;;7.80;99.90;;;;;;4999968;28;20526;-80
2022/03/25 06:52:45;;;;;;;33.77;20.83;;;7.90;99.90;;;;;;5000617;28;20454;-79
2022/03/25 06:55:12;;;;;;;34.03;21.10;;;7.90;99.90;;;;;;5000598;28;20461;-78
2022/03/25 06:57:41;;;;;;;40.83;20.67;;;8.10;99.90;;;;;;5000605;28;20459;-79
2022/03/25 07:00:11;;;;;;;37.83;22.17;;;8.10;99.90;;;;;;5000896;28;20425;-79
2022/03/25 07:02:39;;;;;;;32.77;21.83;;;8.20;99.90;;;;;;4998560;28;20428;-79
2022/03/25 07:05:06;;;;;;;34.23;22.80;;;8.30;99.90;;;;;;4998448;28;20460;-79
2022/03/25 07:07:35;;;;;;;41.47;21.43;;;8.30;99.90;;;;;;4997730;28;20485;-79
2022/03/25 07:10:02;;;;;;;36.80;20.30;;;8.40;99.90;;;;;;4998121;28;20435;-79
2022/03/25 07:12:29;;;;;;;41.50;21.80;;;8.40;99.90;;;;;;4997731;28;20440;-80
2022/03/25 07:14:57;;;;;;;35.30;21.20;;;8.50;99.90;;;;;;5000262;28;20484;-80
2022/03/25 07:17:24;;;;;;;33.90;23.00;;;8.60;99.90;;;;;;5001974;28;20519;-79
2022/03/25 07:19:50;;;;;;;35.27;20.80;;;8.70;99.90;;;;;;5002157;28;20943;-80
2022/03/25 07:22:17;;;;;;;29.63;19.87;;;8.70;99.90;;;;;;5002345;28;20436;-79
2022/03/25 07:24:44;;;;;;;33.60;21.03;;;8.80;99.90;;;;;;5001437;28;20540;-80
2022/03/25 07:27:10;;;;;;;40.00;21.17;;;8.80;99.90;;;;;;5002091;28;20468;-80
2022/03/25 07:29:37;;;;;;;33.73;21.50;;;9.00;99.90;;;;;;5002307;28;20430;-80
2022/03/25 07:32:06;;;;;;;33.43;20.90;;;9.00;99.90;;;;;;5003736;28;20456;-79
2022/03/25 07:34:35;;;;;;;39.27;20.63;;;9.30;99.90;;;;;;5003461;28;20829;-88
2022/03/25 07:37:03;;;;;;;34.87;21.23;;;9.40;99.90;;;;;;5004138;28;20457;-80
2022/03/25 07:39:30;;;;;;;34.90;20.23;;;9.50;99.90;;;;;;5008900;28;20467;-80
2022/03/25 07:41:56;;;;;;;41.80;24.53;;;9.50;99.90;;;;;;5009817;28;20446;-80
2022/03/25 07:44:23;;;;;;;36.83;21.50;;;9.70;99.90;;;;;;5004654;28;20793;-78
2022/03/25 07:46:50;;;;;;;36.20;24.10;;;9.80;99.90;;;;;;5008677;28;20546;-81
2022/03/25 07:49:18;;;;;;;40.13;20.70;;;9.80;99.90;;;;;;5007350;28;20507;-82
2022/03/25 07:51:44;;;;;;;35.70;21.53;;;9.90;99.90;;;;;;5009280;28;20534;-82
2022/03/25 07:54:11;;;;;;;30.80;19.47;;;10.00;99.90;;;;;;5020247;28;20412;-79
2022/03/25 07:56:38;;;;;;;33.40;21.10;;;10.20;99.90;;;;;;5019567;28;20460;-79
2022/03/25 07:59:05;;;;;;;37.00;22.10;;;10.30;99.90;;;;;;5019326;28;20467;-82
2022/03/25 08:01:32;;;;;;;39.73;22.00;;;10.40;99.90;;;;;;5006012;28;20469;-81
2022/03/25 08:03:58;;;;;;;38.50;21.97;;;10.50;99.90;;;;;;5003951;28;20478;-82
2022/03/25 08:06:26;;;;;;;38.53;21.67;;;10.50;99.90;;;;;;5004776;28;20468;-83
2022/03/25 08:08:53;;;;;;;34.47;20.07;;;10.50;99.90;;;;;;5008725;28;20483;-83
2022/03/25 08:11:20;;;;;;;32.87;19.70;;;10.70;99.90;;;;;;5007938;28;20452;-81
2022/03/25 08:13:47;;;;;;;30.60;19.80;;;10.80;99.90;;;;;;5009762;28;20483;-83
2022/03/25 08:16:16;;;;;;;34.50;21.10;;;11.10;99.90;;;;;;5010487;28;20452;-83
2022/03/25 08:18:43;;;;;;;40.00;22.70;;;11.40;99.90;;;;;;5005032;28;20490;-83
2022/03/25 08:21:09;;;;;;;37.87;22.90;;;11.30;99.90;;;;;;5005213;28;20440;-82
2022/03/25 08:29:06;;;;;;;35.17;18.63;;;11.40;99.90;;;;;;5004900;28;21001;-80
2022/03/25 08:31:34;;;;;;;36.00;22.00;;;11.50;99.90;;;;;;5003806;28;20452;-82
2022/03/25 08:34:01;;;;;;;34.70;21.67;;;11.40;99.90;;;;;;5004433;28;20440;-82
2022/03/25 08:36:28;;;;;;;33.63;19.50;;;11.50;99.90;;;;;;5012696;28;20468;-80
2022/03/25 08:38:56;;;;;;;32.00;19.27;;;11.60;99.90;;;;;;5018493;28;20425;-80
2022/03/25 08:41:23;;;;;;;36.50;21.20;;;11.70;99.90;;;;;;5020256;28;20444;-82
2022/03/25 08:43:49;;;;;;;35.57;22.17;;;11.70;99.90;;;;;;5019267;28;20440;-81
2022/03/25 08:46:19;;;;;;;38.23;20.47;;;11.90;99.90;;;;;;5019610;28;20460;-82
2022/03/25 08:48:45;;;;;;;38.50;22.63;;;11.90;99.90;;;;;;5020005;28;20460;-83
2022/03/25 08:51:12;;;;;;;42.60;22.13;;;11.80;99.90;;;;;;5018061;28;20495;-82
2022/03/25 08:53:40;;;;;;;45.33;23.40;;;11.90;99.90;;;;;;5012216;28;20449;-87
2022/03/25 08:56:09;;;;;;;38.07;22.83;;;12.00;99.90;;;;;;5012761;28;20449;-86
2022/03/25 08:58:36;;;;;;;39.08;23.45;;;12.10;99.90;;;;;;5004870;28;20475;-87
2022/03/25 09:01:03;;;;;;;48.47;27.07;;;12.30;99.90;;;;;;5015162;28;20265;-86
2022/03/25 09:03:30;;;;;;;40.43;23.07;;;12.40;99.90;;;;;;5020474;28;20425;-85
2022/03/25 09:05:57;;;;;;;39.80;24.00;;;12.50;99.90;;;;;;5018460;28;20422;-85
2022/03/25 09:08:24;;;;;;;40.70;24.07;;;12.50;99.90;;;;;;5018650;28;20476;-86
2022/03/25 09:10:53;;;;;;;45.30;26.43;;;12.50;99.90;;;;;;5015866;28;20452;-87
2022/03/25 09:13:22;;;;;;;39.90;26.03;;;12.70;99.90;;;;;;5017379;28;20487;-87
2022/03/25 09:15:49;;;;;;;39.40;24.60;;;12.70;99.90;;;;;;5014892;28;20459;-87
2022/03/25 09:18:16;;;;;;;47.20;26.30;;;12.60;99.90;;;;;;5012677;28;20456;-88
2022/03/25 09:20:44;;;;;;;37.33;24.27;;;12.60;99.90;;;;;;5012767;28;20511;-86
2022/03/25 09:23:11;;;;;;;40.87;25.60;;;12.80;99.90;;;;;;5009509;28;20472;-87
2022/03/25 09:25:39;;;;;;;40.97;26.80;;;12.70;99.90;;;;;;5012689;28;20453;-86
2022/03/25 09:28:06;;;;;;;41.80;27.93;;;12.80;99.90;;;;;;5007953;28;20490;-87
2022/03/25 09:30:34;;;;;;;44.70;26.00;;;12.90;99.90;;;;;;5010733;28;20475;-87
2022/03/25 09:33:01;;;;;;;39.83;24.97;;;13.10;99.90;;;;;;5018819;28;20432;-86
2022/03/25 09:35:35;;;;;;;40.33;25.97;;;13.20;99.90;;;;;;5018953;28;20470;-87
2022/03/25 09:38:03;;;;;;;44.50;25.70;;;;;;;;;;5018689;28;20492;-87
2022/03/25 09:40:34;;;;;;;39.77;25.30;;;13.10;99.90;;;;;;5019716;28;20471;-86
2022/03/25 09:43:01;;;;;;;42.43;25.27;;;;;;;;;;5019469;28;20463;-85
2022/03/25 09:45:30;;;;;;;46.53;25.80;;;13.30;99.90;;;;;;5019135;28;20432;-81
2022/03/25 09:47:58;;;;;;;43.13;24.67;;;13.20;99.90;;;;;;5012763;28;20484;-83
2022/03/25 09:50:27;;;;;;;36.97;24.40;;;13.30;99.90;;;;;;5006400;28;20431;-84
2022/03/25 09:52:55;;;;;;;41.20;26.63;;;13.30;99.90;;;;;;5003955;28;20465;-85
2022/03/25 09:55:21;;;;;;;39.20;27.33;;;13.00;99.90;;;;;;5002366;28;20422;-84
2022/03/25 09:57:48;;;;;;;41.13;26.07;;;13.50;99.90;;;;;;5003751;28;20892;-84
2022/03/25 10:00:18;;;;;;;34.63;22.97;;;13.40;99.90;;;;;;5002718;28;20448;-82
2022/03/25 10:02:45;;;;;;;41.70;25.40;;;13.50;99.90;;;;;;5002550;28;20491;-83
2022/03/25 10:05:18;;;;;;;37.60;24.47;;;13.60;99.90;;;;;;5004259;28;20914;-83
2022/03/25 10:07:46;;;;;;;38.20;23.77;;;13.70;99.90;;;;;;5004116;28;20439;-83
2022/03/25 10:10:15;;;;;;;52.67;24.80;;;13.70;99.90;;;;;;5003316;28;20448;-83
2022/03/25 10:12:44;;;;;;;37.17;25.40;;;13.80;99.90;;;;;;5008403;28;20428;-82
2022/03/25 10:15:16;;;;;;;37.43;25.50;;;13.90;99.90;;;;;;5002193;28;20444;-82
2022/03/25 10:17:52;;;;;;;38.10;24.13;;;13.90;99.90;;;;;;4999817;28;20446;-82
2022/03/25 10:20:22;;;;;;;43.17;26.23;;;14.00;99.90;;;;;;5000288;28;20938;-81
2022/03/25 10:23:00;;;;;;;42.57;26.50;;;14.00;99.90;;;;;;4999984;28;20453;-82
2022/03/25 10:25:37;;;;;;;39.50;24.70;;;14.20;99.90;;;;;;5000695;28;20449;-83
2022/03/25 10:28:04;;;;;;;43.17;26.73;;;14.10;99.90;;;;;;5000800;28;20476;-82
2022/03/25 10:30:37;;;;;;;42.47;28.10;;;14.10;99.90;;;;;;5000573;28;20423;-82
2022/03/25 10:33:09;;;;;;;48.70;26.97;;;14.00;99.90;;;;;;5002042;28;20453;-83
2022/03/25 10:35:53;;;;;;;49.53;25.77;;;14.10;99.90;;;;;;5000908;28;20437;-82
2022/03/25 10:38:21;;;;;;;47.07;25.93;;;14.20;99.90;;;;;;4998614;28;20451;-82
2022/03/25 10:40:52;;;;;;;40.97;27.30;;;14.40;99.90;;;;;;5000586;28;20531;-82
2022/03/25 10:43:18;;;;;;;41.30;26.40;;;14.40;99.90;;;;;;5000757;28;20544;-83
2022/03/25 10:45:46;;;;;;;40.50;24.80;;;14.40;99.90;;;;;;4999590;28;20452;-83
2022/03/25 10:48:14;;;;;;;43.93;27.67;;;14.50;99.90;;;;;;4999696;28;20465;-83
2022/03/25 10:51:04;;;;;;;39.13;25.43;;;14.50;99.90;;;;;;5000245;28;20452;-82
2022/03/25 10:53:32;;;;;;;44.57;24.50;;;14.60;99.90;;;;;;5001563;28;20429;-82
2022/03/25 10:56:01;;;;;;;36.87;24.20;;;14.90;99.90;;;;;;5011800;28;20459;-82
2022/03/25 10:58:28;;;;;;;35.13;23.33;;;14.70;99.90;;;;;;5009898;28;20472;-83
2022/03/25 11:00:55;;;;;;;32.83;20.90;;;14.60;99.90;;;;;;5006803;28;20463;-83
2022/03/25 11:03:23;;;;;;;39.00;24.20;;;14.70;99.90;;;;;;5003743;28;20518;-82
2022/03/25 11:05:50;;;;;;;38.80;22.90;;;14.70;99.90;;;;;;5004762;28;20432;-82
2022/03/25 11:08:19;;;;;;;34.20;24.10;;;14.70;99.90;;;;;;5003142;28;20419;-82
2022/03/25 11:10:46;;;;;;;42.10;23.80;;;14.80;99.90;;;;;;5005435;28;20452;-82
2022/03/25 11:13:15;;;;;;;40.60;25.07;;;14.80;99.90;;;;;;5005357;28;20452;-82
2022/03/25 11:15:42;;;;;;;33.97;21.77;;;14.70;99.90;;;;;;5003190;28;20455;-82
2022/03/25 11:18:09;;;;;;;41.47;25.47;;;14.70;99.90;;;;;;5002093;28;20468;-82
2022/03/25 11:20:35;;;;;;;40.70;24.27;;;14.70;99.90;;;;;;5001106;28;20886;-81
2022/03/25 11:23:09;;;;;;;42.67;26.20;;;14.70;99.90;;;;;;5006656;28;20449;-82
2022/03/25 11:25:41;;;;;;;42.67;23.57;;;14.80;99.90;;;;;;5013639;28;20425;-82
2022/03/25 11:28:10;;;;;;;40.77;24.97;;;15.00;99.90;;;;;;4999475;28;20528;-82
2022/03/25 11:30:37;;;;;;;31.10;21.40;;;14.90;99.90;;;;;;5000820;28;20475;-82
2022/03/25 11:33:06;;;;;;;36.43;23.80;;;15.10;99.90;;;;;;5000472;28;20456;-83
2022/03/25 11:38:27;;;;;;;33.13;23.20;;;15.60;99.90;;;;;;4987171;28;20949;-83
2022/03/25 11:40:55;;;;;;;36.67;22.20;;;15.70;99.90;;;;;;5001693;28;20452;-82
2022/03/25 11:43:23;;;;;;;35.20;22.23;;;15.10;99.90;;;;;;5000354;28;20531;-83
2022/03/25 11:46:06;;;;;;;35.57;20.60;;;15.50;99.90;;;;;;4999860;28;20450;-83
2022/03/25 11:48:43;;;;;;;30.63;21.37;;;15.10;99.90;;;;;;4999672;28;20473;-83
2022/03/25 11:51:39;;;;;;;27.07;19.47;;;15.50;98.90;;;;;;5000886;28;20454;-83
2022/03/25 11:54:37;;;;;;;30.27;19.57;;;15.60;99.90;;;;;;5010554;28;20399;-82
2022/03/25 11:57:06;;;;;;;26.37;18.60;;;15.70;99.90;;;;;;5006863;28;20469;-83
2022/03/25 11:59:47;;;;;;;36.30;21.90;;;15.70;99.90;;;;;;5002312;28;20444;-83
2022/03/25 12:02:24;;;;;;;34.50;21.67;;;15.70;99.90;;;;;;5005578;28;20434;-83
2022/03/25 12:04:51;;;;;;;31.23;19.93;;;15.80;99.90;;;;;;5005730;28;20455;-83
2022/03/25 12:07:18;;;;;;;32.33;19.93;;;15.80;99.90;;;;;;5004390;28;20494;-90
2022/03/25 12:09:46;;;;;;;30.33;19.30;;;15.60;99.90;;;;;;5003600;28;20532;-85
2022/03/25 12:12:15;;;;;;;31.03;20.60;;;15.90;99.90;;;;;;5002044;28;20444;-85
2022/03/25 12:15:10;;;;;;;30.20;21.67;;;15.90;99.50;;;;;;5002920;28;20453;-86
2022/03/25 12:17:37;;;;;;;33.00;20.63;;;15.80;97.40;;;;;;5002762;28;20476;-85
2022/03/25 12:20:05;;;;;;;32.20;19.80;;;15.80;99.20;;;;;;5002667;28;20486;-82
2022/03/25 12:22:39;;;;;;;29.07;18.57;;;15.80;99.90;;;;;;5002251;28;20454;-83
2022/03/25 12:25:22;;;;;;;26.47;19.20;;;16.00;99.90;;;;;;5004777;28;20456;-83
2022/03/25 12:27:56;;;;;;;32.40;20.00;;;16.20;99.90;;;;;;5006284;28;21044;-83
2022/03/25 12:30:24;;;;;;;26.00;17.70;;;16.00;99.90;;;;;;5005317;28;20495;-83
2022/03/25 12:33:05;;;;;;;29.37;19.93;;;16.40;99.90;;;;;;5007884;28;20478;-83
2022/03/25 12:35:39;;;;;;;26.30;17.10;;;16.30;96.60;;;;;;5006479;28;20923;-83
2022/03/25 12:38:23;;;;;;;23.23;15.93;;;16.30;99.90;;;;;;5002264;28;20464;-83
2022/03/25 12:40:55;;;;;;;25.80;15.90;;;16.50;98.20;;;;;;5004196;28;20264;-83
2022/03/25 12:43:30;;;;;;;26.97;17.90;;;16.40;95.90;;;;;;5002794;28;20533;-83
2022/03/25 12:45:57;;;;;;;23.27;13.63;;;16.50;98.30;;;;;;5003165;28;20443;-83